createdAt,value
2018-05-09T00:01:28.840Z,5.05
2018-05-09T00:03:58.127Z,5.03
2018-05-09T00:06:28.186Z,5.25
2018-05-09T00:08:57.473Z,5.25
2018-05-09T00:11:26.778Z,5.03
2018-05-09T00:13:56.071Z,5.20
2018-05-09T00:16:25.359Z,5.87
2018-05-09T00:18:54.651Z,5.30
2018-05-09T00:21:23.962Z,5.60
2018-05-09T00:23:53.328Z,5.20
2018-05-09T00:26:22.540Z,5.37
2018-05-09T00:28:52.589Z,5.12
2018-05-09T00:31:21.880Z,5.43
2018-05-09T00:33:51.179Z,5.10
2018-05-09T00:36:20.457Z,5.37
2018-05-09T00:38:51.353Z,4.82
2018-05-09T00:41:20.665Z,5.30
2018-05-09T00:43:49.982Z,4.75
2018-05-09T00:46:20.043Z,5.28
2018-05-09T00:48:49.328Z,5.25
2018-05-09T00:51:18.630Z,4.50
2018-05-09T00:53:48.589Z,5.10
2018-05-09T00:56:18.658Z,5.07
2018-05-09T00:58:48.705Z,4.60
2018-05-09T01:01:17.997Z,4.90
2018-05-09T01:03:47.289Z,5.00
2018-05-09T01:06:16.649Z,5.55
2018-05-09T01:08:45.949Z,4.97
2018-05-09T01:11:15.253Z,5.57
2018-05-09T01:13:44.569Z,6.30
2018-05-09T01:16:14.651Z,4.87
2018-05-09T01:18:43.926Z,4.68
2018-05-09T01:21:13.785Z,5.15
2018-05-09T01:23:43.097Z,5.68
2018-05-09T01:26:13.165Z,6.10
2018-05-09T01:28:42.453Z,4.65
2018-05-09T01:31:11.758Z,5.03
2018-05-09T01:33:41.074Z,6.03
2018-05-09T01:36:10.383Z,4.95
2018-05-09T01:38:39.663Z,5.75
2018-05-09T01:41:08.941Z,5.72
2018-05-09T01:43:38.238Z,5.25
2018-05-09T01:46:07.528Z,5.40
2018-05-09T01:48:37.594Z,5.95
2018-05-09T01:51:06.877Z,5.35
2018-05-09T01:53:36.152Z,5.22
2018-05-09T01:56:06.211Z,5.62
2018-05-09T01:58:35.502Z,5.65
2018-05-09T02:01:04.859Z,5.53
2018-05-09T02:03:34.089Z,5.40
2018-05-09T02:06:03.438Z,5.82
2018-05-09T02:08:32.677Z,5.47
2018-05-09T02:11:01.976Z,5.15
2018-05-09T02:13:31.262Z,6.15
2018-05-09T02:16:01.312Z,5.90
2018-05-09T02:18:30.603Z,6.20
2018-05-09T02:20:59.887Z,6.55
2018-05-09T02:23:29.954Z,5.55
2018-05-09T02:25:59.237Z,5.70
2018-05-09T02:28:28.554Z,4.95
2018-05-09T02:30:57.817Z,5.60
2018-05-09T02:33:27.101Z,5.80
2018-05-09T02:35:57.167Z,5.62
2018-05-09T02:38:26.449Z,6.32
2018-05-09T02:40:55.754Z,5.30
2018-05-09T02:43:25.025Z,6.50
2018-05-09T02:45:55.087Z,6.00
2018-05-09T02:48:24.390Z,6.22
2018-05-09T02:50:53.674Z,5.95
2018-05-09T02:53:22.973Z,6.40
2018-05-09T02:55:52.274Z,6.10
2018-05-09T02:58:21.533Z,5.30
2018-05-09T03:00:50.824Z,6.35
2018-05-09T03:03:20.140Z,5.62
2018-05-09T03:05:50.217Z,5.57
2018-05-09T03:08:19.511Z,5.93
2018-05-09T03:10:48.806Z,6.82
2018-05-09T03:13:18.078Z,6.20
2018-05-09T03:15:47.356Z,5.82
2018-05-09T03:18:18.280Z,5.90
2018-05-09T03:20:47.577Z,5.95
2018-05-09T03:23:16.877Z,6.45
2018-05-09T03:25:46.161Z,6.20
2018-05-09T03:28:15.458Z,6.68
2018-05-09T03:30:44.753Z,6.40
2018-05-09T03:33:14.202Z,6.70
2018-05-09T03:35:44.260Z,6.40
2018-05-09T03:38:13.545Z,6.82
2018-05-09T03:40:42.850Z,7.97
2018-05-09T03:43:12.182Z,7.00
2018-05-09T03:45:41.464Z,7.30
2018-05-09T03:48:10.819Z,6.57
2018-05-09T03:50:40.114Z,7.12
2018-05-09T03:53:09.431Z,7.80
2018-05-09T03:55:39.493Z,7.40
2018-05-09T03:58:08.773Z,7.00
2018-05-09T04:00:38.070Z,7.05
2018-05-09T04:03:25.198Z,7.43
2018-05-09T04:06:12.291Z,6.75
2018-05-09T04:09:00.063Z,6.65
2018-05-09T04:11:29.350Z,7.18
2018-05-09T04:13:58.659Z,7.20
2018-05-09T04:16:27.937Z,8.25
2018-05-09T04:18:57.226Z,7.18
2018-05-09T04:21:27.274Z,7.45
2018-05-09T04:23:56.578Z,9.30
2018-05-09T04:26:25.878Z,7.70
2018-05-09T04:28:55.180Z,7.40
2018-05-09T04:31:24.486Z,7.47
2018-05-09T04:33:53.762Z,7.37
2018-05-09T04:36:23.052Z,7.03
2018-05-09T04:38:52.356Z,8.05
2018-05-09T04:41:21.667Z,8.10
2018-05-09T04:43:50.988Z,8.50
2018-05-09T04:46:20.307Z,7.35
2018-05-09T04:48:49.608Z,8.60
2018-05-09T04:51:18.920Z,7.03
2018-05-09T04:53:48.203Z,6.62
2018-05-09T04:56:17.490Z,6.50
2018-05-09T04:58:47.545Z,6.55
2018-05-09T05:01:16.845Z,7.72
2018-05-09T05:03:46.150Z,6.90
2018-05-09T05:06:15.441Z,6.72
2018-05-09T05:08:44.750Z,6.68
2018-05-09T05:11:14.047Z,8.00
2018-05-09T05:13:43.346Z,7.85
2018-05-09T05:16:13.451Z,8.25
2018-05-09T05:18:42.741Z,7.22
2018-05-09T05:21:12.056Z,7.22
2018-05-09T05:23:41.357Z,7.18
2018-05-09T05:26:10.658Z,8.13
2018-05-09T05:28:40.038Z,7.05
2018-05-09T05:31:09.332Z,7.75
2018-05-09T05:33:38.656Z,7.60
2018-05-09T05:36:08.679Z,7.75
2018-05-09T05:38:37.990Z,7.80
2018-05-09T05:41:07.314Z,7.62
2018-05-09T05:43:37.378Z,6.72
2018-05-09T05:46:06.665Z,6.87
2018-05-09T05:48:35.960Z,7.82
2018-05-09T05:51:05.248Z,6.80
2018-05-09T05:53:34.543Z,7.87
2018-05-09T05:56:03.860Z,7.72
2018-05-09T05:58:33.145Z,6.07
2018-05-09T06:01:02.440Z,6.85
2018-05-09T06:03:31.725Z,8.25
2018-05-09T06:06:01.023Z,7.37
2018-05-09T06:08:30.335Z,7.70
2018-05-09T06:10:59.630Z,7.65
2018-05-09T06:13:29.727Z,8.60
2018-05-09T06:15:59.023Z,7.35
2018-05-09T06:18:28.293Z,7.22
2018-05-09T06:20:57.618Z,7.60
2018-05-09T06:23:26.910Z,6.62
2018-05-09T06:25:56.200Z,7.57
2018-05-09T06:28:25.503Z,8.05
2018-05-09T06:30:54.792Z,7.50
2018-05-09T06:33:24.190Z,7.00
2018-05-09T06:35:53.516Z,7.53
2018-05-09T06:38:22.828Z,6.93
2018-05-09T06:40:52.118Z,7.15
2018-05-09T06:43:21.418Z,7.40
2018-05-09T06:45:50.702Z,7.65
2018-05-09T06:48:20.021Z,6.87
2018-05-09T06:50:49.308Z,6.35
2018-05-09T06:53:18.599Z,6.50
2018-05-09T06:55:47.908Z,6.68
2018-05-09T06:58:17.186Z,6.07
2018-05-09T07:00:46.467Z,5.53
2018-05-09T07:03:17.481Z,5.18
2018-05-09T07:05:46.779Z,5.32
2018-05-09T07:08:16.067Z,5.28
2018-05-09T07:10:45.371Z,5.10
2018-05-09T07:13:16.173Z,5.30
2018-05-09T07:15:45.527Z,5.70
2018-05-09T07:18:14.792Z,5.85
2018-05-09T07:20:44.081Z,5.65
2018-05-09T07:23:15.318Z,5.50
2018-05-09T07:25:44.560Z,5.12
2018-05-09T07:28:13.847Z,4.87
2018-05-09T07:30:43.159Z,5.45
2018-05-09T07:33:12.515Z,5.25
2018-05-09T07:35:41.784Z,5.00
2018-05-09T07:38:11.077Z,6.40
2018-05-09T07:40:41.136Z,4.75
2018-05-09T07:43:10.437Z,5.18
2018-05-09T07:45:39.868Z,5.22
2018-05-09T07:48:09.958Z,5.80
2018-05-09T07:50:39.234Z,5.15
2018-05-09T07:53:09.308Z,5.43
2018-05-09T07:55:39.273Z,5.25
2018-05-09T07:58:08.524Z,6.18
2018-05-09T08:00:37.821Z,5.22
2018-05-09T08:03:07.152Z,5.28
2018-05-09T08:05:36.417Z,5.68
2018-05-09T08:08:05.706Z,5.62
2018-05-09T08:10:34.993Z,5.95
2018-05-09T08:13:04.279Z,5.97
2018-05-09T08:15:33.560Z,5.95
2018-05-09T08:18:03.631Z,5.60
2018-05-09T08:20:32.917Z,4.82
2018-05-09T08:23:02.215Z,5.30
2018-05-09T08:25:31.515Z,5.55
2018-05-09T08:28:00.809Z,5.93
2018-05-09T08:30:30.185Z,6.10
2018-05-09T08:32:59.410Z,6.00
2018-05-09T08:35:28.713Z,6.90
2018-05-09T08:37:58.006Z,8.23
2018-05-09T08:40:27.309Z,8.73
2018-05-09T08:42:56.609Z,8.52
2018-05-09T08:45:25.890Z,10.73
2018-05-09T08:47:55.974Z,14.30
2018-05-09T08:50:25.273Z,12.07
2018-05-09T08:52:54.556Z,11.77
2018-05-09T08:55:23.934Z,14.98
2018-05-09T08:57:53.184Z,16.25
2018-05-09T09:00:22.471Z,16.73
2018-05-09T09:02:51.795Z,18.45
2018-05-09T09:05:21.126Z,18.20
2018-05-09T09:07:50.432Z,15.00
2018-05-09T09:10:19.768Z,14.18
2018-05-09T09:12:49.057Z,10.40
2018-05-09T09:15:18.399Z,9.38
2018-05-09T09:17:47.663Z,7.50
2018-05-09T09:20:16.957Z,7.10
2018-05-09T09:22:46.244Z,7.50
2018-05-09T09:25:15.544Z,7.80
2018-05-09T09:27:44.847Z,6.75
2018-05-09T09:30:14.136Z,7.93
2018-05-09T09:32:43.444Z,7.40
2018-05-09T09:35:12.730Z,7.78
2018-05-09T09:37:42.014Z,6.62
2018-05-09T09:40:12.081Z,7.15
2018-05-09T09:42:41.402Z,6.32
2018-05-09T09:45:10.691Z,5.95
2018-05-09T09:47:39.993Z,6.82
2018-05-09T09:50:10.376Z,5.80
2018-05-09T09:52:39.682Z,6.35
2018-05-09T09:55:08.996Z,5.82
2018-05-09T09:57:38.299Z,6.57
2018-05-09T10:00:07.589Z,6.05
2018-05-09T10:02:36.869Z,5.68
2018-05-09T10:05:06.936Z,6.35
2018-05-09T10:07:37.033Z,6.35
2018-05-09T10:10:06.313Z,5.72
2018-05-09T10:12:36.362Z,6.60
2018-05-09T10:15:05.662Z,5.87
2018-05-09T10:17:34.932Z,5.37
2018-05-09T10:20:04.986Z,5.62
2018-05-09T10:22:34.277Z,5.47
2018-05-09T10:25:03.591Z,5.85
2018-05-09T10:27:32.877Z,5.62
2018-05-09T10:30:02.175Z,5.87
2018-05-09T10:32:31.479Z,5.53
2018-05-09T10:35:00.773Z,5.22
2018-05-09T10:37:30.076Z,5.20
2018-05-09T10:39:59.357Z,5.30
2018-05-09T10:42:28.642Z,6.28
2018-05-09T10:44:58.690Z,5.90
2018-05-09T10:47:27.996Z,5.68
2018-05-09T10:49:58.015Z,5.00
2018-05-09T10:52:27.296Z,5.15
2018-05-09T10:54:56.591Z,5.87
2018-05-09T10:57:26.658Z,5.55
2018-05-09T10:59:55.952Z,5.50
2018-05-09T11:02:25.237Z,5.62
2018-05-09T11:04:54.532Z,5.12
2018-05-09T11:07:23.823Z,5.75
2018-05-09T11:09:53.116Z,6.12
2018-05-09T11:12:22.404Z,6.12
2018-05-09T11:14:52.452Z,5.65
2018-05-09T11:17:21.747Z,5.72
2018-05-09T11:19:51.053Z,5.30
2018-05-09T11:22:20.346Z,5.45
2018-05-09T11:24:49.634Z,6.10
2018-05-09T11:27:19.777Z,6.97
2018-05-09T11:29:49.088Z,6.93
2018-05-09T11:32:18.357Z,8.18
2018-05-09T11:34:47.666Z,7.45
2018-05-09T11:37:17.026Z,7.70
2018-05-09T11:39:46.296Z,7.20
2018-05-09T11:42:15.572Z,7.03
2018-05-09T11:44:44.909Z,6.80
2018-05-09T11:47:14.154Z,7.60
2018-05-09T11:49:44.215Z,7.25
2018-05-09T11:52:13.503Z,7.07
2018-05-09T11:54:42.821Z,7.30
2018-05-09T11:57:12.097Z,7.40
2018-05-09T11:59:41.408Z,7.55
2018-05-09T12:02:10.794Z,7.35
2018-05-09T12:04:39.998Z,6.95
2018-05-09T12:07:09.289Z,6.05
2018-05-09T12:09:38.695Z,6.43
2018-05-09T12:12:08.026Z,7.35
2018-05-09T12:14:37.319Z,6.85
2018-05-09T12:17:06.609Z,6.72
2018-05-09T12:19:35.912Z,7.05
2018-05-09T12:22:05.238Z,6.70
2018-05-09T12:24:34.526Z,6.55
2018-05-09T12:27:03.791Z,6.55
2018-05-09T12:29:33.106Z,5.53
2018-05-09T12:32:02.390Z,6.60
2018-05-09T12:34:32.498Z,6.50
2018-05-09T12:37:02.553Z,6.93
2018-05-09T12:39:31.850Z,6.43
2018-05-09T12:42:01.133Z,6.97
2018-05-09T12:44:30.423Z,7.28
2018-05-09T12:46:59.715Z,6.20
2018-05-09T12:49:29.766Z,7.37
2018-05-09T12:51:59.062Z,6.30
2018-05-09T12:54:28.422Z,7.43
2018-05-09T12:56:57.737Z,6.55
2018-05-09T12:59:27.778Z,6.20
2018-05-09T13:01:57.057Z,6.75
2018-05-09T13:04:26.391Z,6.70
2018-05-09T13:06:55.670Z,6.75
2018-05-09T13:09:24.975Z,6.82
2018-05-09T13:11:54.258Z,6.93
2018-05-09T13:14:23.562Z,7.28
2018-05-09T13:16:52.884Z,7.12
2018-05-09T13:19:22.182Z,6.45
2018-05-09T13:21:51.457Z,6.50
2018-05-09T13:24:20.777Z,6.90
2018-05-09T13:26:50.040Z,7.10
2018-05-09T13:29:20.107Z,5.60
2018-05-09T13:31:49.419Z,6.45
2018-05-09T13:34:18.711Z,6.75
2018-05-09T13:36:47.996Z,9.73
2018-05-09T13:39:17.306Z,6.18
2018-05-09T13:41:46.601Z,6.55
2018-05-09T13:44:15.908Z,6.35
2018-05-09T13:46:45.222Z,6.85
2018-05-09T13:49:14.544Z,6.78
2018-05-09T13:51:43.867Z,7.12
2018-05-09T13:54:13.922Z,7.10
2018-05-09T13:56:43.206Z,6.90
2018-05-09T13:59:12.607Z,6.75
2018-05-09T14:01:41.876Z,6.57
2018-05-09T14:04:11.190Z,6.90
2018-05-09T14:06:40.491Z,6.87
2018-05-09T14:09:09.798Z,6.45
2018-05-09T14:11:39.876Z,6.43
2018-05-09T14:14:09.201Z,6.20
2018-05-09T14:16:38.494Z,6.20
2018-05-09T14:19:07.801Z,5.72
2018-05-09T14:21:37.088Z,6.50
2018-05-09T14:24:06.408Z,6.30
2018-05-09T14:26:35.700Z,5.53
2018-05-09T14:29:05.519Z,6.15
2018-05-09T14:31:35.405Z,6.12
2018-05-09T14:34:04.697Z,5.85
2018-05-09T14:36:34.002Z,5.95
2018-05-09T14:39:03.315Z,6.25
2018-05-09T14:41:32.633Z,6.10
2018-05-09T14:44:01.934Z,6.10
2018-05-09T14:46:31.242Z,6.50
2018-05-09T14:49:00.526Z,6.25
2018-05-09T14:51:29.812Z,7.07
2018-05-09T14:53:59.129Z,5.82
2018-05-09T14:56:28.433Z,6.05
2018-05-09T14:58:57.729Z,6.00
2018-05-09T15:01:27.002Z,6.15
2018-05-09T15:03:56.304Z,6.32
2018-05-09T15:06:25.601Z,5.70
2018-05-09T15:08:54.891Z,6.10
2018-05-09T15:11:24.189Z,6.00
2018-05-09T15:13:53.472Z,6.00
2018-05-09T15:16:22.769Z,5.62
2018-05-09T15:18:52.806Z,6.50
2018-05-09T15:21:22.112Z,5.70
2018-05-09T15:23:51.445Z,6.10
2018-05-09T15:26:20.685Z,5.35
2018-05-09T15:28:49.975Z,5.10
2018-05-09T15:31:19.267Z,5.97
2018-05-09T15:33:48.548Z,5.47
2018-05-09T15:36:17.850Z,5.20
2018-05-09T15:38:47.151Z,5.57
2018-05-09T15:41:16.450Z,5.53
2018-05-09T15:43:45.764Z,5.62
2018-05-09T15:46:15.068Z,4.62
2018-05-09T15:48:44.384Z,5.07
2018-05-09T15:51:13.662Z,5.30
2018-05-09T15:53:42.991Z,5.00
2018-05-09T15:56:12.298Z,5.97
2018-05-09T15:58:41.565Z,4.57
2018-05-09T16:01:10.867Z,4.55
2018-05-09T16:03:40.167Z,5.05
2018-05-09T16:06:09.451Z,6.15
2018-05-09T16:08:38.750Z,4.75
2018-05-09T16:11:08.077Z,5.28
2018-05-09T16:13:38.150Z,6.00
2018-05-09T16:16:07.512Z,5.15
2018-05-09T16:18:37.567Z,10.82
2018-05-09T16:21:06.861Z,18.12
2018-05-09T16:23:37.223Z,9.60
2018-05-09T16:26:07.352Z,7.45
2018-05-09T16:28:37.485Z,6.05
2018-05-09T16:31:07.927Z,5.65
2018-05-09T16:33:37.797Z,4.60
2018-05-09T16:36:08.117Z,4.35
2018-05-09T16:38:37.538Z,4.22
2018-05-09T16:41:06.833Z,3.85
2018-05-09T16:43:36.221Z,4.80
2018-05-09T16:46:05.463Z,4.35
2018-05-09T16:48:35.505Z,4.90
2018-05-09T16:51:04.794Z,4.93
2018-05-09T16:53:34.125Z,5.00
2018-05-09T16:56:03.434Z,4.57
2018-05-09T16:58:32.756Z,4.37
2018-05-09T17:01:02.145Z,6.72
2018-05-09T17:03:31.382Z,4.95
2018-05-09T17:06:00.665Z,4.95
2018-05-09T17:08:29.957Z,5.05
2018-05-09T17:10:59.259Z,4.25
2018-05-09T17:13:28.554Z,4.30
2018-05-09T17:15:57.863Z,4.45
2018-05-09T17:18:27.298Z,4.60
2018-05-09T17:20:56.619Z,4.70
2018-05-09T17:23:25.998Z,5.10
2018-05-09T17:25:55.276Z,5.00
2018-05-09T17:28:24.577Z,4.75
2018-05-09T17:30:53.953Z,3.80
2018-05-09T17:33:23.262Z,4.15
2018-05-09T17:35:52.563Z,4.12
2018-05-09T17:38:21.879Z,4.30
2018-05-09T17:40:51.173Z,4.07
2018-05-09T17:43:20.469Z,3.83
2018-05-09T17:45:49.747Z,3.70
2018-05-09T17:48:19.055Z,4.25
2018-05-09T17:50:49.255Z,4.00
2018-05-09T17:53:18.561Z,3.90
2018-05-09T17:55:47.887Z,4.40
2018-05-09T17:58:17.181Z,4.90
2018-05-09T18:00:46.505Z,6.10
2018-05-09T18:03:16.078Z,6.57
2018-05-09T18:05:45.387Z,7.32
2018-05-09T18:08:14.743Z,8.43
2018-05-09T18:10:44.821Z,9.90
2018-05-09T18:13:14.114Z,9.50
2018-05-09T18:15:43.419Z,10.70
2018-05-09T18:18:12.713Z,10.60
2018-05-09T18:20:42.030Z,8.60
2018-05-09T18:23:11.352Z,6.32
2018-05-09T18:25:40.912Z,5.95
2018-05-09T18:28:10.222Z,6.40
2018-05-09T18:30:39.643Z,6.40
2018-05-09T18:33:09.165Z,6.15
2018-05-09T18:35:39.237Z,8.02
2018-05-09T18:38:08.534Z,8.30
2018-05-09T18:40:37.833Z,6.05
2018-05-09T18:43:07.202Z,6.70
2018-05-09T18:45:36.546Z,5.95
2018-05-09T18:48:05.829Z,5.93
2018-05-09T18:50:35.134Z,13.30
2018-05-09T18:53:04.453Z,18.98
2018-05-09T18:55:33.755Z,12.07
2018-05-09T18:58:03.067Z,9.60
2018-05-09T19:00:32.417Z,8.55
2018-05-09T19:03:02.470Z,8.02
2018-05-09T19:05:31.783Z,7.20
2018-05-09T19:08:01.077Z,7.50
2018-05-09T19:10:30.377Z,9.20
2018-05-09T19:12:59.655Z,7.80
2018-05-09T19:15:29.013Z,12.48
2018-05-09T19:17:58.497Z,10.65
2018-05-09T19:20:27.800Z,9.50
2018-05-09T19:22:57.093Z,9.13
2018-05-09T19:25:26.374Z,9.73
2018-05-09T19:27:55.707Z,8.57
2018-05-09T19:30:24.999Z,8.45
2018-05-09T19:32:54.294Z,8.57
2018-05-09T19:35:23.571Z,7.93
2018-05-09T19:37:52.885Z,7.75
2018-05-09T19:40:22.190Z,7.65
2018-05-09T19:42:51.511Z,6.55
2018-05-09T19:45:20.783Z,7.03
2018-05-09T19:47:50.073Z,7.80
2018-05-09T19:50:20.297Z,7.97
2018-05-09T19:52:49.603Z,8.27
2018-05-09T19:55:18.902Z,8.50
2018-05-09T19:57:48.473Z,7.55
2018-05-09T20:00:18.572Z,8.32
2018-05-09T20:02:47.882Z,7.37
2018-05-09T20:05:17.204Z,8.55
2018-05-09T20:07:46.503Z,14.77
2018-05-09T20:10:15.806Z,15.35
2018-05-09T20:12:49.166Z,9.32
2018-05-09T20:15:19.470Z,8.07
2018-05-09T20:17:48.760Z,8.07
2018-05-09T20:20:18.054Z,8.75
2018-05-09T20:22:47.574Z,9.00
2018-05-09T20:25:16.928Z,8.88
2018-05-09T20:27:47.280Z,8.40
2018-05-09T20:30:21.985Z,6.70
2018-05-09T20:32:51.985Z,5.95
2018-05-09T20:35:22.941Z,6.28
2018-05-09T20:37:52.250Z,5.85
2018-05-09T20:40:21.610Z,6.05
2018-05-09T20:42:50.922Z,5.72
2018-05-09T20:45:21.045Z,5.40
2018-05-09T20:47:51.216Z,5.47
2018-05-09T20:50:20.503Z,4.75
2018-05-09T20:52:49.832Z,5.68
2018-05-09T20:55:28.798Z,5.45
2018-05-09T20:57:58.844Z,5.80
2018-05-09T21:00:28.154Z,5.53
2018-05-09T21:02:57.455Z,6.40
2018-05-09T21:05:26.948Z,6.60
2018-05-09T21:07:58.000Z,5.57
2018-05-09T21:10:27.301Z,5.20
2018-05-09T21:12:56.583Z,5.57
2018-05-09T21:15:25.863Z,5.43
2018-05-09T21:17:55.157Z,5.20
2018-05-09T21:20:25.240Z,5.68
2018-05-09T21:22:54.541Z,6.18
2018-05-09T21:25:23.822Z,5.80
2018-05-09T21:27:53.115Z,6.20
2018-05-09T21:30:22.436Z,5.95
2018-05-09T21:32:51.727Z,6.05
2018-05-09T21:35:21.095Z,5.55
2018-05-09T21:37:50.318Z,5.90
2018-05-09T21:40:19.603Z,6.35
2018-05-09T21:42:48.888Z,7.50
2018-05-09T21:45:18.193Z,7.20
2018-05-09T21:47:47.483Z,7.05
2018-05-09T21:50:17.550Z,7.35
2018-05-09T21:52:46.871Z,7.30
2018-05-09T21:55:16.147Z,7.85
2018-05-09T21:57:45.448Z,8.30
2018-05-09T22:00:14.762Z,8.30
2018-05-09T22:02:44.173Z,7.90
2018-05-09T22:05:13.380Z,7.57
2018-05-09T22:07:42.681Z,8.10
2018-05-09T22:10:11.981Z,8.40
2018-05-09T22:12:41.290Z,7.87
2018-05-09T22:15:10.578Z,7.05
2018-05-09T22:17:39.874Z,8.07
2018-05-09T22:20:09.179Z,8.13
2018-05-09T22:22:38.469Z,7.53
2018-05-09T22:25:07.784Z,7.80
2018-05-09T22:27:37.071Z,8.85
2018-05-09T22:30:06.359Z,8.30
2018-05-09T22:32:35.666Z,8.57
2018-05-09T22:35:04.937Z,7.50
2018-05-09T22:37:34.241Z,8.20
2018-05-09T22:40:03.535Z,8.75
2018-05-09T22:42:32.843Z,7.47
2018-05-09T22:45:02.132Z,8.15
2018-05-09T22:47:31.439Z,8.60
2018-05-09T22:50:00.739Z,8.80
2018-05-09T22:52:30.045Z,9.27
2018-05-09T22:54:59.382Z,8.27
2018-05-09T22:57:28.644Z,9.40
2018-05-09T22:59:57.929Z,8.77
2018-05-09T23:02:27.268Z,8.68
2018-05-09T23:04:56.561Z,8.82
2018-05-09T23:07:25.838Z,8.68
2018-05-09T23:09:55.142Z,8.82
2018-05-09T23:12:24.442Z,9.73
2018-05-09T23:14:53.731Z,8.95
2018-05-09T23:17:23.031Z,9.50
2018-05-09T23:19:52.325Z,9.50
2018-05-09T23:22:21.626Z,9.55
2018-05-09T23:24:50.964Z,9.02
2018-05-09T23:27:20.227Z,9.20
2018-05-09T23:29:49.525Z,10.43
2018-05-09T23:32:18.812Z,9.60
2018-05-09T23:34:48.910Z,10.20
2018-05-09T23:37:18.226Z,9.63
2018-05-09T23:39:47.513Z,9.90
2018-05-09T23:42:16.821Z,9.65
2018-05-09T23:44:46.107Z,9.55
2018-05-09T23:47:15.414Z,8.98
2018-05-09T23:49:44.704Z,9.80
2018-05-09T23:52:14.097Z,9.07
2018-05-09T23:54:43.397Z,8.82
2018-05-09T23:57:12.611Z,9.00
2018-05-09T23:59:41.912Z,8.50
